Terminal Aerodrome Forecast
Issued by NWS

Home | Current Version | Previous Version | Text Only | Print | Product List | Glossary On
Versions: 1 2 3 4 5 6 7 8 9 10 11 12 13
000
FTUS46 KSEW 230500
TAFOLM
TAF
KOLM 230538Z 2306/2406 VRB03KT P6SM BKN100 BKN200
     FM231200 VRB03KT P6SM -SHRA SCT040 OVC070
     FM231500 22010KT P6SM -SHRA BKN015 OVC030
     FM240100 22014KT P6SM -SHRA SCT015 BKN025 OVC040=

USA.gov is the U.S. government's official web portal to all federal, state and local government web resources and services.